Aviation Digital Data Service (ADDS)

Output produced by METARs form (1125 UTC 19 June 2019)
found at http://www.aviationweather.gov/metar/data/
 
VDSR 191100Z 25007KT 9999 SCT015 33/23 Q1004
TAF VDSR 190500Z 1906/1924 27010KT 9999 SCT017 SCT040 
     TEMPO 1906/1911 5000 TSRA SCT015 FEW017CB SCT040
       
VDSV 191100Z 31006KT 9999 FEW017 30/25 Q1006
TAF VDSV 190500Z 1906/1924 28010KT 9999 SCT017 SCT040 
     TEMPO 1906/1911 5000 TSRA SCT015 FEW017CB BKN040